Terminal Aerodrome Forecast
Issued by NWS Jackson, MS

Current Version | Previous Version | Text Only | Print | Product List | Glossary On
Versions: 1 2 3 4 5 6 7 8 9 10 11 12
471
FTUS44 KMEG 111130
TAFTUP
TAF
KTUP 111130Z 1112/1212 06004KT P6SM SKC
     FM111500 06006KT P6SM FEW050 BKN250
     FM120000 VRB03KT P6SM BKN150=

USA.gov is the U.S. government's official web portal to all federal, state and local government web resources and services.